sensor_id;sensor_type;location;lat;lon;timestamp;pressure;altitude;pressure_sealevel;temperature
49154;BMP280;49455;52.252;9.124;2022-09-25T07:20:26;99342.09;;;11.43
49154;BMP280;49455;52.252;9.124;2022-09-25T07:25:27;99341.03;;;11.80
49154;BMP280;49455;52.252;9.124;2022-09-25T07:30:27;99336.84;;;11.86
49154;BMP280;49455;52.252;9.124;2022-09-25T07:35:28;99343.03;;;11.96
49154;BMP280;49455;52.252;9.124;2022-09-25T07:40:29;99335.41;;;12.03
49154;BMP280;49455;52.252;9.124;2022-09-25T07:45:30;99343.31;;;12.12
49154;BMP280;49455;52.252;9.124;2022-09-25T07:50:31;99339.75;;;12.07
49154;BMP280;49455;52.252;9.124;2022-09-25T07:55:31;99345.91;;;12.12
49154;BMP280;49455;52.252;9.124;2022-09-25T08:00:32;99347.59;;;12.10
49154;BMP280;49455;52.252;9.124;2022-09-25T08:05:33;99354.53;;;12.11
49154;BMP280;49455;52.252;9.124;2022-09-25T08:10:33;99361.97;;;12.46
49154;BMP280;49455;52.252;9.124;2022-09-25T08:15:34;99354.50;;;12.68
49154;BMP280;49455;52.252;9.124;2022-09-25T08:20:34;99354.66;;;12.77
49154;BMP280;49455;52.252;9.124;2022-09-25T08:25:34;99364.34;;;12.90
49154;BMP280;49455;52.252;9.124;2022-09-25T08:30:35;99354.78;;;12.84
49154;BMP280;49455;52.252;9.124;2022-09-25T08:35:35;99348.78;;;12.90
49154;BMP280;49455;52.252;9.124;2022-09-25T08:40:49;99348.13;;;13.07
49154;BMP280;49455;52.252;9.124;2022-09-25T08:45:51;99343.78;;;13.04
49154;BMP280;49455;52.252;9.124;2022-09-25T08:50:52;99351.31;;;12.85
49154;BMP280;49455;52.252;9.124;2022-09-25T08:55:53;99357.53;;;12.98
49154;BMP280;49455;52.252;9.124;2022-09-25T09:00:56;99355.03;;;13.06
49154;BMP280;49455;52.252;9.124;2022-09-25T09:06:03;99357.59;;;13.03
49154;BMP280;49455;52.252;9.124;2022-09-25T09:11:13;99358.97;;;12.78
49154;BMP280;49455;52.252;9.124;2022-09-25T09:21:36;99351.63;;;13.10
49154;BMP280;49455;52.252;9.124;2022-09-25T09:43:30;99347.09;;;13.68
49154;BMP280;49455;52.252;9.124;2022-09-25T09:53:48;99353.25;;;13.80
49154;BMP280;49455;52.252;9.124;2022-09-25T10:04:19;99349.09;;;13.97
49154;BMP280;49455;52.252;9.124;2022-09-25T10:09:19;99338.06;;;14.24
49154;BMP280;49455;52.252;9.124;2022-09-25T10:14:20;99339.84;;;14.34
49154;BMP280;49455;52.252;9.124;2022-09-25T10:19:27;99335.66;;;14.54
49154;BMP280;49455;52.252;9.124;2022-09-25T10:24:56;99327.25;;;15.01
49154;BMP280;49455;52.252;9.124;2022-09-25T10:35:15;99323.91;;;15.37
49154;BMP280;49455;52.252;9.124;2022-09-25T10:45:32;99310.97;;;16.15
49154;BMP280;49455;52.252;9.124;2022-09-25T10:50:33;99311.81;;;16.39
49154;BMP280;49455;52.252;9.124;2022-09-25T10:55:36;99313.59;;;16.18
49154;BMP280;49455;52.252;9.124;2022-09-25T11:00:42;99306.59;;;15.76
49154;BMP280;49455;52.252;9.124;2022-09-25T11:05:52;99315.19;;;15.23
49154;BMP280;49455;52.252;9.124;2022-09-25T11:10:55;99308.34;;;15.90
49154;BMP280;49455;52.252;9.124;2022-09-25T11:15:58;99300.50;;;16.40
49154;BMP280;49455;52.252;9.124;2022-09-25T11:21:01;99290.84;;;16.70
49154;BMP280;49455;52.252;9.124;2022-09-25T11:26:05;99300.53;;;15.80
49154;BMP280;49455;52.252;9.124;2022-09-25T11:31:13;99299.69;;;15.73
49154;BMP280;49455;52.252;9.124;2022-09-25T11:36:23;99277.03;;;15.43
49154;BMP280;49455;52.252;9.124;2022-09-25T11:46:44;99282.28;;;16.11
49154;BMP280;49455;52.252;9.124;2022-09-25T12:02:31;99257.06;;;16.44
49154;BMP280;49455;52.252;9.124;2022-09-25T12:08:35;99257.97;;;16.13
49154;BMP280;49455;52.252;9.124;2022-09-25T12:19:04;99255.38;;;16.13
49154;BMP280;49455;52.252;9.124;2022-09-25T12:24:20;99255.38;;;15.96
49154;BMP280;49455;52.252;9.124;2022-09-25T12:40:31;99243.22;;;15.73
49154;BMP280;49455;52.252;9.124;2022-09-25T12:46:07;99244.94;;;16.04
49154;BMP280;49455;52.252;9.124;2022-09-25T12:51:23;99235.38;;;15.81
49154;BMP280;49455;52.252;9.124;2022-09-25T12:56:28;99216.78;;;17.04
49154;BMP280;49455;52.252;9.124;2022-09-25T13:02:15;99206.91;;;17.50
49154;BMP280;49455;52.252;9.124;2022-09-25T13:17:28;99213.66;;;16.04
49154;BMP280;49455;52.252;9.124;2022-09-25T13:22:29;99219.78;;;15.53
49154;BMP280;49455;52.252;9.124;2022-09-25T13:27:37;99224.13;;;15.25
49154;BMP280;49455;52.252;9.124;2022-09-25T13:32:47;99217.13;;;15.11
49154;BMP280;49455;52.252;9.124;2022-09-25T13:37:49;99215.34;;;14.96
49154;BMP280;49455;52.252;9.124;2022-09-25T13:42:50;99218.75;;;14.78
49154;BMP280;49455;52.252;9.124;2022-09-25T13:58:23;99210.03;;;14.61
49154;BMP280;49455;52.252;9.124;2022-09-25T14:03:42;99206.53;;;14.50
49154;BMP280;49455;52.252;9.124;2022-09-25T14:08:44;99209.09;;;14.44
49154;BMP280;49455;52.252;9.124;2022-09-25T14:13:51;99212.66;;;14.76
49154;BMP280;49455;52.252;9.124;2022-09-25T14:18:52;99210.03;;;14.67
49154;BMP280;49455;52.252;9.124;2022-09-25T14:23:55;99206.59;;;14.68
49154;BMP280;49455;52.252;9.124;2022-09-25T14:28:56;99199.63;;;14.61
49154;BMP280;49455;52.252;9.124;2022-09-25T14:50:04;99188.31;;;14.47
49154;BMP280;49455;52.252;9.124;2022-09-25T14:55:06;99183.06;;;14.34
49154;BMP280;49455;52.252;9.124;2022-09-25T15:00:08;99182.22;;;14.39
49154;BMP280;49455;52.252;9.124;2022-09-25T15:15:27;99163.13;;;14.34
49154;BMP280;49455;52.252;9.124;2022-09-25T15:20:31;99169.22;;;14.42
49154;BMP280;49455;52.252;9.124;2022-09-25T15:25:37;99165.81;;;14.61
49154;BMP280;49455;52.252;9.124;2022-09-25T15:30:38;99158.03;;;14.64
49154;BMP280;49455;52.252;9.124;2022-09-25T15:35:39;99149.41;;;14.68
49154;BMP280;49455;52.252;9.124;2022-09-25T15:40:39;99151.13;;;14.86
49154;BMP280;49455;52.252;9.124;2022-09-25T15:46:23;99134.72;;;15.08
49154;BMP280;49455;52.252;9.124;2022-09-25T15:51:27;99134.72;;;15.55
49154;BMP280;49455;52.252;9.124;2022-09-25T15:56:44;99126.84;;;15.88
49154;BMP280;49455;52.252;9.124;2022-09-25T16:01:46;99131.16;;;15.93
49154;BMP280;49455;52.252;9.124;2022-09-25T16:06:47;99124.25;;;15.82
49154;BMP280;49455;52.252;9.124;2022-09-25T16:11:47;99116.44;;;15.70
49154;BMP280;49455;52.252;9.124;2022-09-25T16:16:49;99131.25;;;15.52
49154;BMP280;49455;52.252;9.124;2022-09-25T16:21:50;99106.94;;;15.59
49154;BMP280;49455;52.252;9.124;2022-09-25T16:27:02;99121.69;;;15.43
49154;BMP280;49455;52.252;9.124;2022-09-25T16:32:06;99123.47;;;15.42
49154;BMP280;49455;52.252;9.124;2022-09-25T16:37:20;99113.03;;;15.27
49154;BMP280;49455;52.252;9.124;2022-09-25T16:42:31;99120.84;;;15.03
49154;BMP280;49455;52.252;9.124;2022-09-25T16:47:31;99126.84;;;14.77
49154;BMP280;49455;52.252;9.124;2022-09-25T16:52:33;99131.16;;;14.59
49154;BMP280;49455;52.252;9.124;2022-09-25T16:57:33;99137.09;;;14.25
49154;BMP280;49455;52.252;9.124;2022-09-25T17:02:38;99129.94;;;13.79
49154;BMP280;49455;52.252;9.124;2022-09-25T17:07:40;99123.72;;;13.59
49154;BMP280;49455;52.252;9.124;2022-09-25T17:12:43;99129.41;;;13.06
49154;BMP280;49455;52.252;9.124;2022-09-25T17:17:44;99129.84;;;12.67
49154;BMP280;49455;52.252;9.124;2022-09-25T17:22:47;99116.53;;;12.35
49154;BMP280;49455;52.252;9.124;2022-09-25T17:27:48;99127.00;;;12.42
49154;BMP280;49455;52.252;9.124;2022-09-25T17:32:48;99125.25;;;12.42
49154;BMP280;49455;52.252;9.124;2022-09-25T17:37:49;99130.59;;;12.54
49154;BMP280;49455;52.252;9.124;2022-09-25T17:42:49;99121.78;;;12.39
49154;BMP280;49455;52.252;9.124;2022-09-25T17:47:50;99128.47;;;12.21
49154;BMP280;49455;52.252;9.124;2022-09-25T17:52:53;99125.78;;;12.10
49154;BMP280;49455;52.252;9.124;2022-09-25T17:57:56;99126.31;;;11.87
49154;BMP280;49455;52.252;9.124;2022-09-25T18:02:57;99128.72;;;11.73
49154;BMP280;49455;52.252;9.124;2022-09-25T18:07:57;99133.81;;;11.70
49154;BMP280;49455;52.252;9.124;2022-09-25T18:12:58;99132.91;;;11.65
49154;BMP280;49455;52.252;9.124;2022-09-25T18:17:59;99123.16;;;11.48
49154;BMP280;49455;52.252;9.124;2022-09-25T18:22:59;99117.81;;;11.39
49154;BMP280;49455;52.252;9.124;2022-09-25T18:28:00;99108.69;;;11.61
49154;BMP280;49455;52.252;9.124;2022-09-25T18:33:01;99117.41;;;11.65
49154;BMP280;49455;52.252;9.124;2022-09-25T18:38:01;99115.22;;;11.96
49154;BMP280;49455;52.252;9.124;2022-09-25T18:43:02;99102.78;;;12.38
49154;BMP280;49455;52.252;9.124;2022-09-25T18:48:02;99102.78;;;12.38
49154;BMP280;49455;52.252;9.124;2022-09-25T18:53:03;99101.88;;;12.37
49154;BMP280;49455;52.252;9.124;2022-09-25T18:58:03;99104.31;;;12.23
49154;BMP280;49455;52.252;9.124;2022-09-25T19:03:04;99100.91;;;12.26
49154;BMP280;49455;52.252;9.124;2022-09-25T19:08:04;99094.03;;;12.29
49154;BMP280;49455;52.252;9.124;2022-09-25T19:13:05;99094.69;;;12.12
49154;BMP280;49455;52.252;9.124;2022-09-25T19:18:05;99097.91;;;11.93
49154;BMP280;49455;52.252;9.124;2022-09-25T19:23:06;99093.59;;;11.94
49154;BMP280;49455;52.252;9.124;2022-09-25T19:28:06;99096.09;;;11.85
49154;BMP280;49455;52.252;9.124;2022-09-25T19:33:06;99094.53;;;11.97
49154;BMP280;49455;52.252;9.124;2022-09-25T19:38:07;99098.03;;;12.02
49154;BMP280;49455;52.252;9.124;2022-09-25T19:43:07;99087.47;;;11.84
49154;BMP280;49455;52.252;9.124;2022-09-25T19:48:08;99083.19;;;11.88
49154;BMP280;49455;52.252;9.124;2022-09-25T19:53:08;99084.56;;;11.07
49154;BMP280;49455;52.252;9.124;2022-09-25T19:58:09;99083.13;;;10.72
49154;BMP280;49455;52.252;9.124;2022-09-25T20:03:10;99078.28;;;10.42
49154;BMP280;49455;52.252;9.124;2022-09-25T20:08:10;99074.59;;;10.28
49154;BMP280;49455;52.252;9.124;2022-09-25T20:13:11;99066.94;;;10.34
49154;BMP280;49455;52.252;9.124;2022-09-25T20:18:11;99064.00;;;10.61
49154;BMP280;49455;52.252;9.124;2022-09-25T20:23:12;99051.16;;;10.66
49154;BMP280;49455;52.252;9.124;2022-09-25T20:28:12;99048.38;;;10.56
49154;BMP280;49455;52.252;9.124;2022-09-25T20:33:13;99058.31;;;10.32
49154;BMP280;49455;52.252;9.124;2022-09-25T20:38:13;99059.19;;;10.34
49154;BMP280;49455;52.252;9.124;2022-09-25T20:43:13;99055.91;;;10.42
49154;BMP280;49455;52.252;9.124;2022-09-25T20:48:14;99061.09;;;9.98
49154;BMP280;49455;52.252;9.124;2022-09-25T20:53:14;99060.66;;;10.19
49154;BMP280;49455;52.252;9.124;2022-09-25T20:58:15;99062.44;;;10.23
49154;BMP280;49455;52.252;9.124;2022-09-25T21:03:15;99054.22;;;9.97
49154;BMP280;49455;52.252;9.124;2022-09-25T21:08:15;99048.47;;;10.12
49154;BMP280;49455;52.252;9.124;2022-09-25T21:13:16;99048.50;;;10.13
49154;BMP280;49455;52.252;9.124;2022-09-25T21:18:16;99035.69;;;10.19
49154;BMP280;49455;52.252;9.124;2022-09-25T21:23:17;99036.47;;;10.15
49154;BMP280;49455;52.252;9.124;2022-09-25T21:28:17;99030.44;;;10.13
49154;BMP280;49455;52.252;9.124;2022-09-25T21:33:18;99027.09;;;10.20
49154;BMP280;49455;52.252;9.124;2022-09-25T21:38:18;99023.94;;;10.36
49154;BMP280;49455;52.252;9.124;2022-09-25T21:43:18;99021.31;;;10.34
49154;BMP280;49455;52.252;9.124;2022-09-25T21:48:19;99029.78;;;10.26
49154;BMP280;49455;52.252;9.124;2022-09-25T21:53:20;99023.47;;;10.09
49154;BMP280;49455;52.252;9.124;2022-09-25T21:58:21;99029.94;;;9.88
49154;BMP280;49455;52.252;9.124;2022-09-25T22:03:21;99027.38;;;9.90
49154;BMP280;49455;52.252;9.124;2022-09-25T22:08:22;99014.50;;;9.90
49154;BMP280;49455;52.252;9.124;2022-09-25T22:13:23;99014.34;;;9.84
49154;BMP280;49455;52.252;9.124;2022-09-25T22:18:24;99013.47;;;9.83
49154;BMP280;49455;52.252;9.124;2022-09-25T22:23:24;99015.72;;;10.08
49154;BMP280;49455;52.252;9.124;2022-09-25T22:28:25;99008.66;;;9.99
49154;BMP280;49455;52.252;9.124;2022-09-25T22:33:25;99007.16;;;10.12
49154;BMP280;49455;52.252;9.124;2022-09-25T22:38:27;99005.38;;;10.08
49154;BMP280;49455;52.252;9.124;2022-09-25T22:43:27;99007.66;;;9.92
